createdAt,value
2023-02-22T00:00:43.057Z,11.80
2023-02-22T00:03:32.475Z,11.80
2023-02-22T00:06:20.260Z,11.80
2023-02-22T00:09:08.905Z,11.80
2023-02-22T00:11:54.395Z,11.70
2023-02-22T00:14:40.369Z,11.80
2023-02-22T00:17:25.723Z,11.80
2023-02-22T00:20:14.538Z,11.80
2023-02-22T00:23:01.488Z,11.80
2023-02-22T00:25:48.136Z,11.80
2023-02-22T00:28:33.853Z,11.80
2023-02-22T00:31:21.402Z,11.70
2023-02-22T00:34:08.206Z,11.80
2023-02-22T00:36:53.990Z,11.80
2023-02-22T00:39:39.659Z,11.80
2023-02-22T00:42:25.053Z,11.80
2023-02-22T00:45:10.677Z,11.80
2023-02-22T00:47:56.911Z,11.80
2023-02-22T00:50:43.532Z,11.80
2023-02-22T00:53:28.959Z,11.80
2023-02-22T00:56:14.593Z,11.80
2023-02-22T00:59:03.762Z,11.80
2023-02-22T01:01:49.428Z,11.70
2023-02-22T01:04:35.233Z,11.70
2023-02-22T01:07:21.278Z,11.70
2023-02-22T01:10:08.678Z,11.70
2023-02-22T01:12:54.621Z,11.80
2023-02-22T01:15:41.305Z,11.70
2023-02-22T01:18:26.882Z,11.70
2023-02-22T01:21:12.487Z,11.60
2023-02-22T01:24:00.309Z,11.60
2023-02-22T01:26:49.939Z,11.60
2023-02-22T01:29:35.334Z,11.50
2023-02-22T01:32:21.128Z,11.50
2023-02-22T01:35:09.998Z,11.50
2023-02-22T01:38:00.910Z,11.50
2023-02-22T01:40:47.983Z,11.50
2023-02-22T01:43:34.249Z,11.40
2023-02-22T01:46:24.221Z,11.40
2023-02-22T01:49:10.345Z,11.40
2023-02-22T01:51:57.913Z,11.40
2023-02-22T01:54:46.331Z,11.40
2023-02-22T01:57:33.136Z,11.30
2023-02-22T02:00:20.928Z,11.40
2023-02-22T02:03:11.977Z,11.40
2023-02-22T02:05:58.760Z,11.30
2023-02-22T02:08:56.279Z,11.30
2023-02-22T02:11:42.486Z,11.20
2023-02-22T02:14:32.010Z,11.20
2023-02-22T02:17:18.287Z,11.20
2023-02-22T02:20:11.436Z,11.20
2023-02-22T02:23:18.363Z,11.30
2023-02-22T02:26:10.401Z,11.30
2023-02-22T02:29:14.123Z,11.30
2023-02-22T02:31:59.969Z,11.30
2023-02-22T02:34:57.833Z,11.20
2023-02-22T02:37:52.771Z,11.20
2023-02-22T02:40:38.579Z,11.20
2023-02-22T02:43:40.702Z,11.20
2023-02-22T02:46:30.196Z,11.20
2023-02-22T02:49:19.443Z,11.20
2023-02-22T02:52:05.633Z,11.20
2023-02-22T02:54:52.010Z,11.10
2023-02-22T02:57:38.937Z,11.10
2023-02-22T03:00:27.109Z,11.10
2023-02-22T03:03:12.248Z,11.10
2023-02-22T03:06:16.771Z,11.10
2023-02-22T03:09:08.819Z,11.10
2023-02-22T03:12:01.444Z,11.10
2023-02-22T03:14:55.995Z,11.10
2023-02-22T03:17:46.782Z,11.10
2023-02-22T03:20:43.190Z,11.10
2023-02-22T03:23:32.560Z,11.10
2023-02-22T03:26:24.037Z,11.20
2023-02-22T03:29:17.259Z,11.20
2023-02-22T03:32:04.952Z,11.20
2023-02-22T03:34:56.747Z,11.20
2023-02-22T03:37:46.708Z,11.10
2023-02-22T03:40:38.541Z,11.10
2023-02-22T03:43:25.779Z,11.10
2023-02-22T03:46:15.381Z,11.10
2023-02-22T03:49:04.809Z,11.10
2023-02-22T03:51:55.055Z,11.10
2023-02-22T03:54:40.772Z,11.10
2023-02-22T03:57:28.528Z,11.10
2023-02-22T04:00:23.907Z,11.10
2023-02-22T04:03:09.629Z,11.10
2023-02-22T04:05:55.378Z,11.10
2023-02-22T04:08:44.068Z,11.10
2023-02-22T04:11:30.381Z,11.10
2023-02-22T04:14:16.081Z,11.00
2023-02-22T04:17:01.550Z,11.00
2023-02-22T04:19:48.235Z,11.00
2023-02-22T04:22:34.356Z,11.00
2023-02-22T04:25:20.857Z,11.00
2023-02-22T04:28:06.246Z,11.00
2023-02-22T04:31:02.053Z,11.00
2023-02-22T04:33:48.036Z,11.00
2023-02-22T04:36:37.088Z,11.00
2023-02-22T04:39:23.029Z,11.00
2023-02-22T04:42:10.183Z,11.00
2023-02-22T04:44:55.964Z,10.90
2023-02-22T04:47:41.421Z,10.90
2023-02-22T04:50:28.141Z,10.90
2023-02-22T04:53:13.945Z,10.90
2023-02-22T04:55:59.842Z,10.90
2023-02-22T04:58:45.927Z,11.00
2023-02-22T05:01:33.729Z,10.90
2023-02-22T05:04:21.622Z,10.90
2023-02-22T05:07:07.085Z,10.90
2023-02-22T05:09:52.539Z,10.90
2023-02-22T05:12:37.837Z,10.90
2023-02-22T05:15:25.241Z,10.90
2023-02-22T05:18:10.704Z,10.90
2023-02-22T05:20:59.340Z,10.90
2023-02-22T05:23:53.766Z,10.90
2023-02-22T05:26:42.456Z,10.90
2023-02-22T05:29:28.058Z,10.90
2023-02-22T05:32:13.784Z,10.90
2023-02-22T05:34:59.417Z,10.80
2023-02-22T05:37:45.412Z,10.80
2023-02-22T05:40:31.528Z,10.80
2023-02-22T05:43:16.996Z,10.80
2023-02-22T05:46:02.747Z,10.90
2023-02-22T05:48:48.205Z,10.90
2023-02-22T05:51:34.020Z,10.80
2023-02-22T05:54:19.653Z,10.80
2023-02-22T05:57:05.011Z,10.80
2023-02-22T05:59:50.842Z,10.80
2023-02-22T06:02:36.470Z,10.80
2023-02-22T06:05:22.141Z,10.80
2023-02-22T06:08:08.210Z,10.80
2023-02-22T06:10:54.487Z,10.80
2023-02-22T06:13:40.603Z,10.80
2023-02-22T06:16:26.037Z,10.90
2023-02-22T06:19:15.299Z,10.90
2023-02-22T06:22:02.884Z,10.80
2023-02-22T06:24:48.667Z,10.90
2023-02-22T06:27:34.731Z,10.80
2023-02-22T06:30:21.494Z,10.90
2023-02-22T06:33:07.224Z,10.90
2023-02-22T06:35:52.553Z,10.90
2023-02-22T06:38:38.304Z,10.90
2023-02-22T06:41:24.559Z,10.80
2023-02-22T06:44:10.853Z,10.90
2023-02-22T06:46:59.517Z,10.90
2023-02-22T06:49:45.324Z,10.90
2023-02-22T06:52:30.970Z,10.90
2023-02-22T06:55:17.341Z,10.90
2023-02-22T06:58:04.813Z,11.00
2023-02-22T07:00:50.506Z,11.00
2023-02-22T07:03:36.387Z,11.00
2023-02-22T07:06:21.972Z,11.00
2023-02-22T07:09:07.645Z,11.00
2023-02-22T07:11:53.037Z,11.00
2023-02-22T07:14:38.946Z,11.00
2023-02-22T07:17:24.583Z,11.00
2023-02-22T07:20:11.546Z,11.00
2023-02-22T07:22:56.972Z,11.00
2023-02-22T07:25:42.941Z,11.00
2023-02-22T07:28:28.729Z,11.10
2023-02-22T07:31:14.358Z,11.10
2023-02-22T07:34:01.113Z,11.00
2023-02-22T07:36:46.907Z,11.00
2023-02-22T07:39:42.155Z,11.10
2023-02-22T07:42:27.736Z,11.10
2023-02-22T07:45:14.697Z,11.20
2023-02-22T07:48:00.832Z,11.10
2023-02-22T07:50:46.575Z,11.20
2023-02-22T07:53:33.454Z,11.20
2023-02-22T07:56:19.029Z,11.30
2023-02-22T07:59:05.316Z,11.30
2023-02-22T08:01:51.042Z,11.30
2023-02-22T08:04:39.571Z,11.30
2023-02-22T08:07:30.449Z,11.30
2023-02-22T08:10:17.085Z,11.40
2023-02-22T08:13:05.981Z,11.40
2023-02-22T08:15:53.529Z,11.40
2023-02-22T08:18:41.069Z,11.40
2023-02-22T08:21:26.619Z,11.50
2023-02-22T08:24:12.656Z,11.50
2023-02-22T08:26:58.488Z,11.50
2023-02-22T08:29:44.001Z,11.50
2023-02-22T08:32:30.000Z,11.50
2023-02-22T08:35:18.881Z,11.50
2023-02-22T08:38:05.505Z,11.60
2023-02-22T08:40:50.945Z,11.60
2023-02-22T08:43:36.617Z,11.60
2023-02-22T08:46:21.939Z,11.60
2023-02-22T08:49:08.873Z,11.60
2023-02-22T08:51:54.384Z,11.70
2023-02-22T08:54:39.950Z,11.70
2023-02-22T08:57:25.930Z,11.60
2023-02-22T09:00:11.774Z,11.60
2023-02-22T09:02:57.529Z,11.70
2023-02-22T09:05:44.126Z,11.70
2023-02-22T09:08:29.713Z,11.70
2023-02-22T09:11:16.127Z,11.70
2023-02-22T09:14:01.456Z,11.70
2023-02-22T09:16:47.161Z,11.70
2023-02-22T09:19:33.091Z,11.60
2023-02-22T09:22:18.325Z,11.70
2023-02-22T09:25:15.872Z,11.60
2023-02-22T09:28:02.594Z,11.60
2023-02-22T09:30:48.579Z,11.60
2023-02-22T09:33:34.068Z,11.70
2023-02-22T09:36:21.837Z,11.70
2023-02-22T09:39:07.768Z,11.70
2023-02-22T09:42:08.015Z,11.80
2023-02-22T09:45:06.245Z,11.80
2023-02-22T09:48:08.094Z,11.80
2023-02-22T09:51:01.703Z,11.90
2023-02-22T09:53:49.872Z,12.00
2023-02-22T09:56:35.376Z,12.00
2023-02-22T09:59:24.326Z,11.90
2023-02-22T10:02:16.150Z,11.80
2023-02-22T10:05:08.399Z,11.80
2023-02-22T10:07:58.169Z,11.70
2023-02-22T10:10:47.146Z,11.70
2023-02-22T10:13:39.213Z,11.80
2023-02-22T10:16:50.874Z,11.90
2023-02-22T10:19:54.697Z,12.00
2023-02-22T10:22:56.848Z,12.00
2023-02-22T10:25:45.116Z,12.00
2023-02-22T10:28:43.947Z,12.00
2023-02-22T10:31:36.384Z,12.00
2023-02-22T10:34:26.084Z,12.00
2023-02-22T10:37:14.575Z,12.10
2023-02-22T10:40:14.170Z,12.10
2023-02-22T10:43:06.255Z,12.20
2023-02-22T10:46:02.911Z,12.30
2023-02-22T10:48:50.290Z,12.30
2023-02-22T10:51:35.983Z,12.40
2023-02-22T10:54:26.659Z,12.30
2023-02-22T10:57:13.590Z,12.50
2023-02-22T11:00:14.110Z,12.50
2023-02-22T11:03:01.024Z,12.40
2023-02-22T11:05:46.958Z,12.40
2023-02-22T11:08:33.267Z,12.40
2023-02-22T11:11:24.720Z,12.50
2023-02-22T11:14:10.921Z,12.60
2023-02-22T11:16:58.156Z,12.70
2023-02-22T11:19:49.102Z,12.70
2023-02-22T11:22:41.059Z,12.70
2023-02-22T11:25:46.937Z,12.80
2023-02-22T11:28:33.308Z,12.90
2023-02-22T11:31:23.405Z,13.00
2023-02-22T11:34:24.503Z,13.10
2023-02-22T11:37:25.995Z,13.10
2023-02-22T11:40:20.154Z,13.20
2023-02-22T11:43:12.380Z,13.40
2023-02-22T11:46:11.437Z,13.40
2023-02-22T11:48:57.685Z,13.50
2023-02-22T11:52:03.748Z,13.40
2023-02-22T11:55:09.920Z,13.50
2023-02-22T11:58:05.789Z,13.50
2023-02-22T12:00:56.420Z,13.60
2023-02-22T12:04:07.402Z,13.60
2023-02-22T12:07:15.485Z,13.50
2023-02-22T12:10:27.420Z,13.50
2023-02-22T12:13:17.184Z,13.50
2023-02-22T12:16:22.566Z,13.60
2023-02-22T12:19:14.240Z,13.60
2023-02-22T12:22:08.692Z,13.50
2023-02-22T12:25:09.371Z,13.50
2023-02-22T12:27:58.977Z,13.50
2023-02-22T12:30:47.035Z,13.30
2023-02-22T12:33:40.766Z,13.30
2023-02-22T12:36:32.404Z,13.30
2023-02-22T12:39:25.254Z,13.40
2023-02-22T12:42:16.796Z,13.30
2023-02-22T12:45:16.801Z,13.20
2023-02-22T12:48:10.102Z,13.30
2023-02-22T12:50:58.129Z,13.30
2023-02-22T12:53:46.431Z,13.30
2023-02-22T12:56:36.349Z,13.30
2023-02-22T12:59:25.179Z,13.40
2023-02-22T13:02:34.272Z,13.40
2023-02-22T13:05:20.778Z,13.50
2023-02-22T13:08:15.253Z,13.40
2023-02-22T13:11:17.193Z,13.30
2023-02-22T13:14:18.380Z,13.40
2023-02-22T13:17:20.801Z,13.40
2023-02-22T13:20:09.267Z,13.40
2023-02-22T13:22:58.554Z,13.50
2023-02-22T13:25:47.952Z,13.50
2023-02-22T13:28:44.712Z,13.40
2023-02-22T13:31:42.577Z,13.30
2023-02-22T13:34:30.090Z,13.40
2023-02-22T13:37:35.858Z,13.30
2023-02-22T13:40:43.458Z,13.30
2023-02-22T13:43:48.048Z,13.20
2023-02-22T13:50:22.517Z,13.40
2023-02-22T13:53:12.669Z,13.40
2023-02-22T13:55:59.754Z,13.40
2023-02-22T13:59:06.766Z,13.40
2023-02-22T14:01:53.542Z,13.40
2023-02-22T14:04:45.910Z,13.40
2023-02-22T14:07:34.065Z,13.50
2023-02-22T14:10:37.669Z,13.40
2023-02-22T14:13:26.643Z,13.40
2023-02-22T14:16:12.380Z,13.40
2023-02-22T14:19:06.520Z,13.40
2023-02-22T14:22:02.084Z,13.40
2023-02-22T14:24:48.633Z,13.40
2023-02-22T14:27:41.294Z,13.50
2023-02-22T14:30:31.926Z,13.50
2023-02-22T14:33:41.204Z,13.60
2023-02-22T14:36:46.363Z,13.60
2023-02-22T14:39:34.585Z,13.60
2023-02-22T14:42:37.833Z,13.60
2023-02-22T14:45:24.882Z,13.60
2023-02-22T14:48:27.292Z,13.60
2023-02-22T14:51:22.288Z,13.60
2023-02-22T14:54:14.696Z,13.70
2023-02-22T14:57:14.882Z,13.60
2023-02-22T15:00:30.579Z,13.50
2023-02-22T15:03:38.708Z,13.50
2023-02-22T15:06:28.727Z,13.50
2023-02-22T15:09:25.715Z,13.50
2023-02-22T15:12:14.437Z,13.50
2023-02-22T15:15:21.993Z,13.50
2023-02-22T15:18:12.312Z,13.40
2023-02-22T15:20:58.458Z,13.40
2023-02-22T15:23:45.049Z,13.50
2023-02-22T15:26:37.417Z,13.40
2023-02-22T15:29:24.919Z,13.30
2023-02-22T15:32:29.220Z,13.30
2023-02-22T15:35:31.342Z,13.30
2023-02-22T15:38:21.542Z,13.30
2023-02-22T15:41:08.424Z,13.30
2023-02-22T15:44:22.672Z,13.10
2023-02-22T15:47:13.083Z,13.10
2023-02-22T15:50:18.124Z,13.10
2023-02-22T15:53:03.973Z,13.20
2023-02-22T15:55:55.609Z,13.20
2023-02-22T15:58:42.015Z,13.20
2023-02-22T16:01:27.565Z,13.20
2023-02-22T16:04:18.360Z,13.30
2023-02-22T16:07:07.070Z,13.30
2023-02-22T16:09:52.877Z,13.30
2023-02-22T16:12:38.346Z,13.30
2023-02-22T16:15:24.304Z,13.30
2023-02-22T16:18:16.825Z,13.20
2023-02-22T16:21:04.223Z,13.20
2023-02-22T16:23:51.250Z,13.10
2023-02-22T16:26:36.902Z,13.10
2023-02-22T16:29:26.191Z,13.00
2023-02-22T16:32:11.877Z,13.00
2023-02-22T16:34:57.629Z,13.00
2023-02-22T16:37:49.442Z,13.00
2023-02-22T16:40:38.403Z,13.00
2023-02-22T16:43:25.679Z,13.10
2023-02-22T16:46:11.268Z,13.10
2023-02-22T16:48:59.631Z,13.10
2023-02-22T16:51:50.735Z,13.00
2023-02-22T16:54:40.032Z,13.00
2023-02-22T16:57:26.430Z,12.90
2023-02-22T17:00:16.256Z,12.90
2023-02-22T17:03:08.846Z,12.90
2023-02-22T17:05:58.608Z,12.90
2023-02-22T17:08:45.433Z,12.90
2023-02-22T17:11:30.892Z,12.80
2023-02-22T17:14:17.637Z,12.80
2023-02-22T17:17:03.811Z,12.80
2023-02-22T17:19:49.329Z,12.70
2023-02-22T17:22:35.216Z,12.70
2023-02-22T17:25:25.529Z,12.70
2023-02-22T17:28:11.615Z,12.70
2023-02-22T17:31:02.390Z,12.70
2023-02-22T17:33:48.916Z,12.60
2023-02-22T17:36:36.421Z,12.60
2023-02-22T17:39:22.213Z,12.60
2023-02-22T17:42:08.078Z,12.60
2023-02-22T17:44:53.743Z,12.60
2023-02-22T17:47:45.670Z,12.50
2023-02-22T17:50:34.125Z,12.50
2023-02-22T17:53:22.844Z,12.50
2023-02-22T17:56:13.388Z,12.50
2023-02-22T17:58:58.997Z,12.50
2023-02-22T18:01:45.117Z,12.40
2023-02-22T18:04:32.607Z,12.40
2023-02-22T18:07:19.848Z,12.40
2023-02-22T18:10:05.695Z,12.40
2023-02-22T18:12:53.850Z,12.40
2023-02-22T18:15:40.015Z,12.30
2023-02-22T18:18:25.696Z,12.30
2023-02-22T18:21:15.162Z,12.30
2023-02-22T18:24:01.286Z,12.30
2023-02-22T18:26:47.588Z,12.40
2023-02-22T18:29:33.294Z,12.40
2023-02-22T18:32:18.883Z,12.40
2023-02-22T18:35:04.882Z,12.50
2023-02-22T18:37:50.369Z,12.50
2023-02-22T18:40:35.688Z,12.50
2023-02-22T18:43:21.571Z,12.50
2023-02-22T18:46:13.915Z,12.50
2023-02-22T18:48:59.500Z,12.40
2023-02-22T18:51:46.049Z,12.40
2023-02-22T18:54:31.693Z,12.50
2023-02-22T18:57:17.254Z,12.50
2023-02-22T19:00:03.299Z,12.40
2023-02-22T19:02:48.799Z,12.50
2023-02-22T19:05:35.475Z,12.40
2023-02-22T19:08:20.999Z,12.40
2023-02-22T19:11:11.071Z,12.40
2023-02-22T19:13:57.499Z,12.40
2023-02-22T19:16:46.414Z,12.30
2023-02-22T19:19:32.075Z,12.30
2023-02-22T19:22:17.682Z,12.30
2023-02-22T19:25:04.302Z,12.30
2023-02-22T19:27:49.880Z,12.30
2023-02-22T19:30:35.539Z,12.30
2023-02-22T19:33:25.998Z,12.30
2023-02-22T19:36:12.498Z,12.30
2023-02-22T19:39:01.601Z,12.30
2023-02-22T19:41:47.389Z,12.30
2023-02-22T19:44:35.739Z,12.30
2023-02-22T19:47:22.571Z,12.40
2023-02-22T19:50:08.442Z,12.40
2023-02-22T19:52:55.921Z,12.40
2023-02-22T19:55:41.594Z,12.40
2023-02-22T19:58:27.302Z,12.30
2023-02-22T20:01:18.281Z,12.30
2023-02-22T20:04:08.983Z,12.40
2023-02-22T20:06:55.496Z,12.30
2023-02-22T20:09:40.884Z,12.30
2023-02-22T20:12:26.673Z,12.30
2023-02-22T20:15:13.054Z,12.30
2023-02-22T20:17:59.310Z,12.30
2023-02-22T20:20:44.774Z,12.30
2023-02-22T20:23:30.420Z,12.30
2023-02-22T20:26:17.993Z,12.30
2023-02-22T20:29:04.515Z,12.30
2023-02-22T20:31:53.692Z,12.30
2023-02-22T20:34:39.253Z,12.30
2023-02-22T20:37:25.178Z,12.30
2023-02-22T20:40:11.088Z,12.30
2023-02-22T20:42:56.586Z,12.30
2023-02-22T20:45:42.497Z,12.20
2023-02-22T20:48:28.499Z,12.30
2023-02-22T20:51:14.780Z,12.30
2023-02-22T20:54:01.322Z,12.30
2023-02-22T20:56:47.318Z,12.30
2023-02-22T20:59:32.938Z,12.20
2023-02-22T21:02:18.520Z,12.30
2023-02-22T21:05:05.820Z,12.30
2023-02-22T21:07:51.946Z,12.20
2023-02-22T21:10:47.601Z,12.20
2023-02-22T21:13:33.589Z,12.20
2023-02-22T21:16:27.360Z,12.20
2023-02-22T21:19:28.020Z,12.20
2023-02-22T21:22:17.111Z,12.20
2023-02-22T21:25:02.777Z,12.20
2023-02-22T21:27:48.242Z,12.20
2023-02-22T21:30:34.190Z,12.20
2023-02-22T21:33:19.866Z,12.10
2023-02-22T21:36:13.483Z,12.10
2023-02-22T21:39:00.201Z,12.10
2023-02-22T21:41:46.586Z,12.20
2023-02-22T21:44:32.495Z,12.10
2023-02-22T21:47:17.853Z,12.10
2023-02-22T21:50:03.638Z,12.10
2023-02-22T21:52:49.415Z,12.10
2023-02-22T21:55:34.938Z,12.10
2023-02-22T21:58:20.540Z,12.10
2023-02-22T22:01:07.006Z,12.10
2023-02-22T22:03:52.680Z,12.10
2023-02-22T22:06:38.193Z,12.10
2023-02-22T22:09:24.642Z,12.10
2023-02-22T22:12:10.422Z,12.10
2023-02-22T22:14:55.712Z,12.10
2023-02-22T22:17:42.630Z,12.10
2023-02-22T22:20:30.678Z,12.00
2023-02-22T22:23:16.360Z,12.00
2023-02-22T22:26:02.367Z,12.00
2023-02-22T22:28:49.417Z,12.00
2023-02-22T22:31:34.827Z,12.00
2023-02-22T22:34:20.741Z,12.00
2023-02-22T22:37:06.233Z,12.00
2023-02-22T22:39:52.709Z,12.00
2023-02-22T22:42:43.138Z,12.00
2023-02-22T22:45:28.603Z,11.90
2023-02-22T22:48:15.001Z,11.90
2023-02-22T22:51:02.661Z,11.90
2023-02-22T22:53:49.484Z,11.90
2023-02-22T22:56:35.990Z,11.90
2023-02-22T22:59:21.759Z,11.90
2023-02-22T23:02:10.922Z,11.90
2023-02-22T23:04:56.349Z,11.90
2023-02-22T23:07:42.046Z,11.80
2023-02-22T23:10:27.801Z,11.90
2023-02-22T23:13:15.578Z,11.90
2023-02-22T23:16:01.985Z,11.80
2023-02-22T23:18:47.428Z,11.80
2023-02-22T23:21:32.656Z,11.80
2023-02-22T23:24:21.027Z,11.80
2023-02-22T23:27:07.336Z,11.80
2023-02-22T23:29:53.027Z,11.80
2023-02-22T23:32:38.908Z,11.80
2023-02-22T23:35:24.615Z,11.80
2023-02-22T23:38:11.237Z,11.80
2023-02-22T23:41:01.059Z,11.80
2023-02-22T23:43:47.309Z,11.80
2023-02-22T23:46:32.975Z,11.80
2023-02-22T23:49:20.471Z,11.80
2023-02-22T23:52:06.580Z,11.80
2023-02-22T23:54:53.852Z,11.70
2023-02-22T23:57:43.134Z,11.70
